sensor_id;sensor_type;location;lat;lon;timestamp;P1;durP1;ratioP1;P2;durP2;ratioP2
74510;SDS011;62991;50.040;18.400;2022-10-22T00:01:47;10.38;;;4.40;;
74510;SDS011;62991;50.040;18.400;2022-10-22T00:04:48;8.88;;;3.72;;
74510;SDS011;62991;50.040;18.400;2022-10-22T00:07:49;9.07;;;3.60;;
74510;SDS011;62991;50.040;18.400;2022-10-22T00:10:50;5.65;;;2.80;;
74510;SDS011;62991;50.040;18.400;2022-10-22T00:13:51;9.65;;;3.47;;
74510;SDS011;62991;50.040;18.400;2022-10-22T00:16:52;9.50;;;3.55;;
74510;SDS011;62991;50.040;18.400;2022-10-22T00:19:53;8.98;;;3.83;;
74510;SDS011;62991;50.040;18.400;2022-10-22T00:22:53;8.77;;;4.13;;
74510;SDS011;62991;50.040;18.400;2022-10-22T00:25:54;7.65;;;3.92;;
74510;SDS011;62991;50.040;18.400;2022-10-22T00:28:55;11.43;;;4.35;;
74510;SDS011;62991;50.040;18.400;2022-10-22T00:31:55;9.38;;;4.22;;
74510;SDS011;62991;50.040;18.400;2022-10-22T00:34:56;10.30;;;4.72;;
74510;SDS011;62991;50.040;18.400;2022-10-22T00:37:57;10.23;;;3.92;;
74510;SDS011;62991;50.040;18.400;2022-10-22T00:40:58;8.45;;;3.80;;
74510;SDS011;62991;50.040;18.400;2022-10-22T00:43:59;9.50;;;4.13;;
74510;SDS011;62991;50.040;18.400;2022-10-22T00:47:02;10.95;;;4.20;;
74510;SDS011;62991;50.040;18.400;2022-10-22T00:50:04;11.07;;;4.13;;
74510;SDS011;62991;50.040;18.400;2022-10-22T00:53:12;9.70;;;4.38;;
74510;SDS011;62991;50.040;18.400;2022-10-22T00:56:16;10.32;;;3.65;;
74510;SDS011;62991;50.040;18.400;2022-10-22T00:59:17;7.18;;;3.67;;
74510;SDS011;62991;50.040;18.400;2022-10-22T01:02:18;10.30;;;3.63;;
74510;SDS011;62991;50.040;18.400;2022-10-22T01:05:18;11.63;;;4.10;;
74510;SDS011;62991;50.040;18.400;2022-10-22T01:24:40;8.10;;;3.45;;
74510;SDS011;62991;50.040;18.400;2022-10-22T01:30:47;8.82;;;3.00;;
74510;SDS011;62991;50.040;18.400;2022-10-22T01:33:52;6.68;;;3.13;;
74510;SDS011;62991;50.040;18.400;2022-10-22T01:36:54;6.53;;;3.47;;
74510;SDS011;62991;50.040;18.400;2022-10-22T01:39:59;9.40;;;3.90;;
74510;SDS011;62991;50.040;18.400;2022-10-22T01:43:02;7.70;;;3.50;;
74510;SDS011;62991;50.040;18.400;2022-10-22T01:46:05;7.10;;;2.92;;
74510;SDS011;62991;50.040;18.400;2022-10-22T01:49:16;7.60;;;3.70;;
74510;SDS011;62991;50.040;18.400;2022-10-22T02:05:54;10.55;;;3.90;;
74510;SDS011;62991;50.040;18.400;2022-10-22T02:08:59;6.15;;;3.15;;
74510;SDS011;62991;50.040;18.400;2022-10-22T02:12:02;6.97;;;3.08;;
74510;SDS011;62991;50.040;18.400;2022-10-22T02:15:05;7.57;;;2.53;;
74510;SDS011;62991;50.040;18.400;2022-10-22T02:18:08;6.70;;;3.20;;
74510;SDS011;62991;50.040;18.400;2022-10-22T02:21:09;8.80;;;3.78;;
74510;SDS011;62991;50.040;18.400;2022-10-22T02:24:10;8.38;;;3.25;;
74510;SDS011;62991;50.040;18.400;2022-10-22T02:27:15;8.98;;;3.55;;
74510;SDS011;62991;50.040;18.400;2022-10-22T02:30:22;6.40;;;3.25;;
74510;SDS011;62991;50.040;18.400;2022-10-22T02:33:25;7.82;;;3.20;;
74510;SDS011;62991;50.040;18.400;2022-10-22T02:36:29;9.25;;;4.13;;
74510;SDS011;62991;50.040;18.400;2022-10-22T02:39:30;8.07;;;4.13;;
74510;SDS011;62991;50.040;18.400;2022-10-22T02:42:32;7.57;;;3.58;;
74510;SDS011;62991;50.040;18.400;2022-10-22T02:45:35;7.38;;;3.90;;
74510;SDS011;62991;50.040;18.400;2022-10-22T02:48:36;6.88;;;3.13;;
74510;SDS011;62991;50.040;18.400;2022-10-22T02:51:37;9.23;;;3.33;;
74510;SDS011;62991;50.040;18.400;2022-10-22T02:54:37;6.60;;;3.67;;
74510;SDS011;62991;50.040;18.400;2022-10-22T02:57:38;8.23;;;3.42;;
74510;SDS011;62991;50.040;18.400;2022-10-22T03:00:39;4.40;;;2.00;;
74510;SDS011;62991;50.040;18.400;2022-10-22T03:03:39;10.02;;;3.78;;
74510;SDS011;62991;50.040;18.400;2022-10-22T03:06:40;10.68;;;3.42;;
74510;SDS011;62991;50.040;18.400;2022-10-22T03:09:44;8.63;;;3.80;;
74510;SDS011;62991;50.040;18.400;2022-10-22T03:12:45;10.93;;;3.88;;
74510;SDS011;62991;50.040;18.400;2022-10-22T03:15:48;9.00;;;3.88;;
74510;SDS011;62991;50.040;18.400;2022-10-22T03:18:49;9.00;;;3.50;;
74510;SDS011;62991;50.040;18.400;2022-10-22T03:21:54;9.10;;;3.83;;
74510;SDS011;62991;50.040;18.400;2022-10-22T03:24:59;12.25;;;4.85;;
74510;SDS011;62991;50.040;18.400;2022-10-22T03:28:07;13.07;;;4.40;;
74510;SDS011;62991;50.040;18.400;2022-10-22T03:31:10;14.13;;;4.72;;
74510;SDS011;62991;50.040;18.400;2022-10-22T03:34:10;21.90;;;6.80;;
74510;SDS011;62991;50.040;18.400;2022-10-22T03:37:12;20.67;;;7.80;;
74510;SDS011;62991;50.040;18.400;2022-10-22T03:40:13;16.77;;;5.70;;
74510;SDS011;62991;50.040;18.400;2022-10-22T03:43:14;13.77;;;5.45;;
74510;SDS011;62991;50.040;18.400;2022-10-22T03:46:15;8.13;;;3.88;;
74510;SDS011;62991;50.040;18.400;2022-10-22T03:49:16;11.00;;;4.18;;
74510;SDS011;62991;50.040;18.400;2022-10-22T03:52:17;9.90;;;4.47;;
74510;SDS011;62991;50.040;18.400;2022-10-22T03:55:18;11.88;;;3.72;;
74510;SDS011;62991;50.040;18.400;2022-10-22T03:58:19;11.93;;;5.30;;
74510;SDS011;62991;50.040;18.400;2022-10-22T04:01:19;11.43;;;5.10;;
74510;SDS011;62991;50.040;18.400;2022-10-22T04:04:20;9.25;;;4.10;;
74510;SDS011;62991;50.040;18.400;2022-10-22T04:07:21;8.70;;;3.90;;
74510;SDS011;62991;50.040;18.400;2022-10-22T04:10:21;8.60;;;3.60;;
74510;SDS011;62991;50.040;18.400;2022-10-22T04:13:22;14.98;;;4.38;;
74510;SDS011;62991;50.040;18.400;2022-10-22T04:16:23;9.88;;;3.40;;
74510;SDS011;62991;50.040;18.400;2022-10-22T04:19:24;9.48;;;4.80;;
74510;SDS011;62991;50.040;18.400;2022-10-22T04:22:24;13.98;;;4.40;;
74510;SDS011;62991;50.040;18.400;2022-10-22T04:25:25;10.43;;;3.97;;
74510;SDS011;62991;50.040;18.400;2022-10-22T04:28:26;17.63;;;4.97;;
74510;SDS011;62991;50.040;18.400;2022-10-22T04:31:27;10.95;;;3.42;;
74510;SDS011;62991;50.040;18.400;2022-10-22T04:34:27;9.00;;;3.95;;
74510;SDS011;62991;50.040;18.400;2022-10-22T04:37:28;8.70;;;3.90;;
74510;SDS011;62991;50.040;18.400;2022-10-22T04:40:29;8.40;;;3.63;;
74510;SDS011;62991;50.040;18.400;2022-10-22T04:43:30;6.95;;;3.45;;
74510;SDS011;62991;50.040;18.400;2022-10-22T04:46:32;10.77;;;4.05;;
74510;SDS011;62991;50.040;18.400;2022-10-22T04:49:34;11.18;;;4.40;;
74510;SDS011;62991;50.040;18.400;2022-10-22T04:52:34;20.75;;;6.90;;
74510;SDS011;62991;50.040;18.400;2022-10-22T04:55:35;25.67;;;8.25;;
74510;SDS011;62991;50.040;18.400;2022-10-22T04:58:36;35.28;;;9.05;;
74510;SDS011;62991;50.040;18.400;2022-10-22T05:01:38;28.60;;;8.95;;
74510;SDS011;62991;50.040;18.400;2022-10-22T05:04:42;12.75;;;5.82;;
74510;SDS011;62991;50.040;18.400;2022-10-22T05:07:43;15.13;;;6.13;;
74510;SDS011;62991;50.040;18.400;2022-10-22T05:10:44;20.85;;;6.78;;
74510;SDS011;62991;50.040;18.400;2022-10-22T05:13:45;18.27;;;7.30;;
74510;SDS011;62991;50.040;18.400;2022-10-22T05:16:46;26.20;;;8.25;;
74510;SDS011;62991;50.040;18.400;2022-10-22T05:19:47;28.83;;;10.38;;
74510;SDS011;62991;50.040;18.400;2022-10-22T05:22:47;15.38;;;6.18;;
74510;SDS011;62991;50.040;18.400;2022-10-22T05:25:48;10.48;;;4.57;;
74510;SDS011;62991;50.040;18.400;2022-10-22T05:28:49;10.02;;;4.97;;
74510;SDS011;62991;50.040;18.400;2022-10-22T05:31:50;12.85;;;5.75;;
74510;SDS011;62991;50.040;18.400;2022-10-22T05:34:52;18.70;;;5.38;;
74510;SDS011;62991;50.040;18.400;2022-10-22T05:37:52;16.40;;;6.28;;
74510;SDS011;62991;50.040;18.400;2022-10-22T05:41:00;16.73;;;7.53;;
74510;SDS011;62991;50.040;18.400;2022-10-22T05:44:02;20.90;;;8.30;;
74510;SDS011;62991;50.040;18.400;2022-10-22T05:47:03;18.88;;;8.45;;
74510;SDS011;62991;50.040;18.400;2022-10-22T05:50:04;19.58;;;9.07;;
74510;SDS011;62991;50.040;18.400;2022-10-22T05:53:05;18.45;;;6.78;;
74510;SDS011;62991;50.040;18.400;2022-10-22T05:56:07;23.35;;;7.82;;
74510;SDS011;62991;50.040;18.400;2022-10-22T05:59:11;18.92;;;6.90;;
74510;SDS011;62991;50.040;18.400;2022-10-22T06:02:11;21.58;;;8.80;;
74510;SDS011;62991;50.040;18.400;2022-10-22T06:05:13;22.42;;;8.48;;
74510;SDS011;62991;50.040;18.400;2022-10-22T06:08:13;18.90;;;7.47;;
74510;SDS011;62991;50.040;18.400;2022-10-22T06:11:15;15.80;;;5.28;;
74510;SDS011;62991;50.040;18.400;2022-10-22T06:14:17;12.05;;;5.18;;
74510;SDS011;62991;50.040;18.400;2022-10-22T06:17:19;11.43;;;5.00;;
74510;SDS011;62991;50.040;18.400;2022-10-22T06:20:19;10.27;;;4.65;;
74510;SDS011;62991;50.040;18.400;2022-10-22T06:23:20;12.55;;;4.80;;
74510;SDS011;62991;50.040;18.400;2022-10-22T06:26:21;17.33;;;6.47;;
74510;SDS011;62991;50.040;18.400;2022-10-22T06:29:22;18.90;;;5.95;;
74510;SDS011;62991;50.040;18.400;2022-10-22T06:32:23;26.67;;;7.90;;
74510;SDS011;62991;50.040;18.400;2022-10-22T06:35:23;21.73;;;8.25;;
74510;SDS011;62991;50.040;18.400;2022-10-22T06:38:24;22.60;;;8.05;;
74510;SDS011;62991;50.040;18.400;2022-10-22T06:41:25;22.08;;;7.68;;
74510;SDS011;62991;50.040;18.400;2022-10-22T06:44:25;34.92;;;10.02;;
74510;SDS011;62991;50.040;18.400;2022-10-22T06:47:26;22.65;;;6.82;;
74510;SDS011;62991;50.040;18.400;2022-10-22T06:50:27;26.88;;;8.13;;
74510;SDS011;62991;50.040;18.400;2022-10-22T06:53:28;14.02;;;5.25;;
74510;SDS011;62991;50.040;18.400;2022-10-22T06:56:29;19.83;;;7.57;;
74510;SDS011;62991;50.040;18.400;2022-10-22T06:59:29;13.32;;;5.63;;
74510;SDS011;62991;50.040;18.400;2022-10-22T07:02:30;15.27;;;4.97;;
74510;SDS011;62991;50.040;18.400;2022-10-22T07:05:32;16.67;;;5.85;;
74510;SDS011;62991;50.040;18.400;2022-10-22T07:08:33;16.58;;;6.18;;
74510;SDS011;62991;50.040;18.400;2022-10-22T07:11:41;18.95;;;7.13;;
74510;SDS011;62991;50.040;18.400;2022-10-22T07:14:43;16.10;;;6.63;;
74510;SDS011;62991;50.040;18.400;2022-10-22T07:17:44;14.70;;;6.15;;
74510;SDS011;62991;50.040;18.400;2022-10-22T07:20:45;16.75;;;6.25;;
74510;SDS011;62991;50.040;18.400;2022-10-22T07:23:47;8.18;;;3.83;;
74510;SDS011;62991;50.040;18.400;2022-10-22T07:26:48;15.27;;;6.07;;
74510;SDS011;62991;50.040;18.400;2022-10-22T07:29:48;15.25;;;6.35;;
74510;SDS011;62991;50.040;18.400;2022-10-22T07:32:49;10.20;;;4.43;;
74510;SDS011;62991;50.040;18.400;2022-10-22T07:35:50;14.23;;;5.53;;
74510;SDS011;62991;50.040;18.400;2022-10-22T07:38:56;16.10;;;6.45;;
74510;SDS011;62991;50.040;18.400;2022-10-22T07:41:57;14.98;;;5.55;;
74510;SDS011;62991;50.040;18.400;2022-10-22T07:44:58;16.30;;;5.80;;
74510;SDS011;62991;50.040;18.400;2022-10-22T07:47:59;17.92;;;6.03;;
74510;SDS011;62991;50.040;18.400;2022-10-22T07:51:00;17.33;;;6.97;;
74510;SDS011;62991;50.040;18.400;2022-10-22T07:54:01;21.95;;;8.20;;
74510;SDS011;62991;50.040;18.400;2022-10-22T07:57:03;19.40;;;7.10;;
74510;SDS011;62991;50.040;18.400;2022-10-22T08:00:04;14.38;;;5.90;;
74510;SDS011;62991;50.040;18.400;2022-10-22T08:03:07;17.00;;;6.78;;
74510;SDS011;62991;50.040;18.400;2022-10-22T08:06:11;10.93;;;5.53;;
74510;SDS011;62991;50.040;18.400;2022-10-22T08:09:13;15.25;;;5.80;;
74510;SDS011;62991;50.040;18.400;2022-10-22T08:12:14;17.98;;;7.43;;
74510;SDS011;62991;50.040;18.400;2022-10-22T08:15:15;12.35;;;5.80;;
74510;SDS011;62991;50.040;18.400;2022-10-22T08:18:16;16.10;;;6.68;;
74510;SDS011;62991;50.040;18.400;2022-10-22T08:21:16;15.95;;;6.53;;
74510;SDS011;62991;50.040;18.400;2022-10-22T08:24:17;15.90;;;5.65;;
74510;SDS011;62991;50.040;18.400;2022-10-22T08:27:17;11.80;;;5.05;;
74510;SDS011;62991;50.040;18.400;2022-10-22T08:30:18;13.93;;;5.60;;
74510;SDS011;62991;50.040;18.400;2022-10-22T08:33:19;17.65;;;6.32;;
74510;SDS011;62991;50.040;18.400;2022-10-22T08:36:20;19.02;;;5.70;;
74510;SDS011;62991;50.040;18.400;2022-10-22T08:39:21;13.82;;;6.20;;
74510;SDS011;62991;50.040;18.400;2022-10-22T08:49:29;10.93;;;4.97;;
74510;SDS011;62991;50.040;18.400;2022-10-22T08:52:33;31.75;;;11.60;;
74510;SDS011;62991;50.040;18.400;2022-10-22T08:55:35;16.92;;;7.28;;
74510;SDS011;62991;50.040;18.400;2022-10-22T08:58:48;22.17;;;8.18;;
74510;SDS011;62991;50.040;18.400;2022-10-22T09:01:58;15.15;;;6.43;;
74510;SDS011;62991;50.040;18.400;2022-10-22T09:08:39;12.65;;;6.10;;
74510;SDS011;62991;50.040;18.400;2022-10-22T09:11:47;8.88;;;3.03;;
74510;SDS011;62991;50.040;18.400;2022-10-22T09:14:49;17.00;;;6.28;;
74510;SDS011;62991;50.040;18.400;2022-10-22T09:17:57;20.20;;;7.68;;
74510;SDS011;62991;50.040;18.400;2022-10-22T09:21:28;17.23;;;6.57;;
74510;SDS011;62991;50.040;18.400;2022-10-22T09:24:36;12.90;;;4.90;;
74510;SDS011;62991;50.040;18.400;2022-10-22T09:27:39;11.77;;;5.47;;
74510;SDS011;62991;50.040;18.400;2022-10-22T09:30:39;18.55;;;8.75;;
74510;SDS011;62991;50.040;18.400;2022-10-22T09:33:41;15.00;;;6.22;;
74510;SDS011;62991;50.040;18.400;2022-10-22T09:36:43;14.60;;;6.43;;
74510;SDS011;62991;50.040;18.400;2022-10-22T09:39:45;22.23;;;7.82;;
74510;SDS011;62991;50.040;18.400;2022-10-22T09:42:47;21.98;;;8.13;;
74510;SDS011;62991;50.040;18.400;2022-10-22T09:45:54;14.90;;;6.53;;
74510;SDS011;62991;50.040;18.400;2022-10-22T09:49:05;22.83;;;7.70;;
74510;SDS011;62991;50.040;18.400;2022-10-22T09:52:25;24.08;;;8.45;;
74510;SDS011;62991;50.040;18.400;2022-10-22T09:55:29;25.80;;;8.93;;
74510;SDS011;62991;50.040;18.400;2022-10-22T09:58:39;33.90;;;9.98;;
74510;SDS011;62991;50.040;18.400;2022-10-22T10:01:44;28.75;;;9.80;;
74510;SDS011;62991;50.040;18.400;2022-10-22T10:04:46;24.17;;;9.93;;
74510;SDS011;62991;50.040;18.400;2022-10-22T10:07:52;19.20;;;8.25;;
74510;SDS011;62991;50.040;18.400;2022-10-22T10:14:34;17.30;;;7.32;;
74510;SDS011;62991;50.040;18.400;2022-10-22T10:17:52;23.52;;;8.73;;
74510;SDS011;62991;50.040;18.400;2022-10-22T10:27:53;20.48;;;8.45;;
74510;SDS011;62991;50.040;18.400;2022-10-22T10:34:30;13.82;;;7.68;;
74510;SDS011;62991;50.040;18.400;2022-10-22T10:37:45;12.15;;;6.00;;
74510;SDS011;62991;50.040;18.400;2022-10-22T10:41:14;19.25;;;7.53;;
74510;SDS011;62991;50.040;18.400;2022-10-22T10:51:10;24.02;;;9.32;;
74510;SDS011;62991;50.040;18.400;2022-10-22T11:00:42;22.70;;;7.68;;
74510;SDS011;62991;50.040;18.400;2022-10-22T11:07:13;21.42;;;7.88;;
74510;SDS011;62991;50.040;18.400;2022-10-22T11:10:24;12.32;;;5.05;;
74510;SDS011;62991;50.040;18.400;2022-10-22T11:13:55;19.05;;;7.28;;
74510;SDS011;62991;50.040;18.400;2022-10-22T11:17:13;20.73;;;8.85;;
74510;SDS011;62991;50.040;18.400;2022-10-22T11:20:17;21.40;;;9.38;;
74510;SDS011;62991;50.040;18.400;2022-10-22T11:23:59;31.80;;;10.85;;
74510;SDS011;62991;50.040;18.400;2022-10-22T11:27:09;20.80;;;9.07;;
74510;SDS011;62991;50.040;18.400;2022-10-22T11:30:23;21.58;;;10.13;;
74510;SDS011;62991;50.040;18.400;2022-10-22T11:33:31;40.78;;;11.70;;
74510;SDS011;62991;50.040;18.400;2022-10-22T11:36:42;37.05;;;12.75;;
74510;SDS011;62991;50.040;18.400;2022-10-22T11:39:52;18.13;;;7.45;;
74510;SDS011;62991;50.040;18.400;2022-10-22T11:42:56;25.60;;;9.57;;
74510;SDS011;62991;50.040;18.400;2022-10-22T11:46:24;27.75;;;10.77;;
74510;SDS011;62991;50.040;18.400;2022-10-22T11:49:44;27.23;;;11.63;;
74510;SDS011;62991;50.040;18.400;2022-10-22T11:53:01;39.72;;;13.32;;
74510;SDS011;62991;50.040;18.400;2022-10-22T11:56:24;25.58;;;10.32;;
74510;SDS011;62991;50.040;18.400;2022-10-22T11:59:47;32.72;;;12.13;;
74510;SDS011;62991;50.040;18.400;2022-10-22T12:03:01;19.45;;;7.75;;
74510;SDS011;62991;50.040;18.400;2022-10-22T12:06:23;23.70;;;9.10;;
74510;SDS011;62991;50.040;18.400;2022-10-22T12:09:25;23.42;;;8.40;;
74510;SDS011;62991;50.040;18.400;2022-10-22T12:12:33;19.73;;;8.60;;
74510;SDS011;62991;50.040;18.400;2022-10-22T12:15:45;23.85;;;8.32;;
74510;SDS011;62991;50.040;18.400;2022-10-22T12:21:51;21.80;;;8.23;;
74510;SDS011;62991;50.040;18.400;2022-10-22T12:24:54;13.55;;;5.82;;
74510;SDS011;62991;50.040;18.400;2022-10-22T12:27:59;21.80;;;8.70;;
74510;SDS011;62991;50.040;18.400;2022-10-22T12:31:00;19.67;;;7.57;;
74510;SDS011;62991;50.040;18.400;2022-10-22T12:34:01;16.45;;;7.20;;
74510;SDS011;62991;50.040;18.400;2022-10-22T12:37:03;17.05;;;8.40;;
74510;SDS011;62991;50.040;18.400;2022-10-22T12:43:19;18.52;;;8.05;;
74510;SDS011;62991;50.040;18.400;2022-10-22T12:46:28;18.73;;;8.18;;
74510;SDS011;62991;50.040;18.400;2022-10-22T12:49:35;19.50;;;7.28;;
74510;SDS011;62991;50.040;18.400;2022-10-22T12:52:41;26.58;;;8.60;;
74510;SDS011;62991;50.040;18.400;2022-10-22T12:55:42;24.33;;;10.30;;
74510;SDS011;62991;50.040;18.400;2022-10-22T12:58:59;27.35;;;10.82;;
74510;SDS011;62991;50.040;18.400;2022-10-22T13:02:20;23.83;;;10.23;;
74510;SDS011;62991;50.040;18.400;2022-10-22T13:05:24;53.25;;;17.98;;
74510;SDS011;62991;50.040;18.400;2022-10-22T13:08:26;18.85;;;8.98;;
74510;SDS011;62991;50.040;18.400;2022-10-22T13:12:10;35.13;;;11.57;;
74510;SDS011;62991;50.040;18.400;2022-10-22T13:15:20;29.45;;;12.02;;
74510;SDS011;62991;50.040;18.400;2022-10-22T13:18:32;33.25;;;13.32;;
74510;SDS011;62991;50.040;18.400;2022-10-22T13:21:35;37.72;;;14.57;;
74510;SDS011;62991;50.040;18.400;2022-10-22T13:24:47;44.25;;;15.93;;
74510;SDS011;62991;50.040;18.400;2022-10-22T13:28:02;30.15;;;11.68;;
74510;SDS011;62991;50.040;18.400;2022-10-22T13:31:18;47.92;;;18.08;;
74510;SDS011;62991;50.040;18.400;2022-10-22T13:37:23;55.13;;;18.70;;
74510;SDS011;62991;50.040;18.400;2022-10-22T13:40:25;34.40;;;13.50;;
74510;SDS011;62991;50.040;18.400;2022-10-22T13:43:25;30.48;;;11.35;;
74510;SDS011;62991;50.040;18.400;2022-10-22T13:46:26;33.58;;;12.77;;
74510;SDS011;62991;50.040;18.400;2022-10-22T13:49:28;42.00;;;15.70;;
74510;SDS011;62991;50.040;18.400;2022-10-22T13:52:36;36.65;;;12.93;;
74510;SDS011;62991;50.040;18.400;2022-10-22T13:55:39;35.75;;;12.38;;
74510;SDS011;62991;50.040;18.400;2022-10-22T13:58:41;38.10;;;12.95;;
74510;SDS011;62991;50.040;18.400;2022-10-22T14:01:43;26.60;;;11.02;;
74510;SDS011;62991;50.040;18.400;2022-10-22T14:04:44;35.17;;;14.65;;
74510;SDS011;62991;50.040;18.400;2022-10-22T14:07:45;35.33;;;13.35;;
74510;SDS011;62991;50.040;18.400;2022-10-22T14:10:46;33.70;;;13.30;;
74510;SDS011;62991;50.040;18.400;2022-10-22T14:13:47;38.13;;;13.80;;
74510;SDS011;62991;50.040;18.400;2022-10-22T14:16:48;13.82;;;6.18;;
74510;SDS011;62991;50.040;18.400;2022-10-22T14:19:48;24.35;;;11.68;;
74510;SDS011;62991;50.040;18.400;2022-10-22T14:22:50;18.00;;;8.10;;
74510;SDS011;62991;50.040;18.400;2022-10-22T14:25:51;25.90;;;11.32;;
74510;SDS011;62991;50.040;18.400;2022-10-22T14:28:52;29.52;;;11.75;;
74510;SDS011;62991;50.040;18.400;2022-10-22T14:31:53;34.88;;;12.23;;
74510;SDS011;62991;50.040;18.400;2022-10-22T14:34:53;32.58;;;12.55;;
74510;SDS011;62991;50.040;18.400;2022-10-22T14:37:54;31.65;;;12.10;;
74510;SDS011;62991;50.040;18.400;2022-10-22T14:40:58;29.80;;;12.50;;
74510;SDS011;62991;50.040;18.400;2022-10-22T14:43:59;35.53;;;13.63;;
74510;SDS011;62991;50.040;18.400;2022-10-22T14:47:00;36.40;;;13.38;;
74510;SDS011;62991;50.040;18.400;2022-10-22T14:50:01;33.47;;;13.90;;
74510;SDS011;62991;50.040;18.400;2022-10-22T14:53:02;30.95;;;12.85;;
74510;SDS011;62991;50.040;18.400;2022-10-22T14:56:02;25.88;;;11.45;;
74510;SDS011;62991;50.040;18.400;2022-10-22T14:59:04;36.30;;;15.15;;
74510;SDS011;62991;50.040;18.400;2022-10-22T15:02:05;45.70;;;14.57;;
74510;SDS011;62991;50.040;18.400;2022-10-22T15:05:06;39.47;;;16.50;;
74510;SDS011;62991;50.040;18.400;2022-10-22T15:08:07;52.83;;;20.05;;
74510;SDS011;62991;50.040;18.400;2022-10-22T15:11:09;34.17;;;15.77;;
74510;SDS011;62991;50.040;18.400;2022-10-22T15:14:11;38.70;;;16.27;;
74510;SDS011;62991;50.040;18.400;2022-10-22T15:17:12;33.85;;;17.42;;
74510;SDS011;62991;50.040;18.400;2022-10-22T15:20:13;45.67;;;23.67;;
74510;SDS011;62991;50.040;18.400;2022-10-22T15:23:14;33.90;;;14.88;;
74510;SDS011;62991;50.040;18.400;2022-10-22T15:26:15;17.35;;;8.32;;
74510;SDS011;62991;50.040;18.400;2022-10-22T15:29:16;34.35;;;13.40;;
74510;SDS011;62991;50.040;18.400;2022-10-22T15:32:17;39.50;;;14.98;;
74510;SDS011;62991;50.040;18.400;2022-10-22T15:35:17;33.75;;;14.90;;
74510;SDS011;62991;50.040;18.400;2022-10-22T15:38:19;46.00;;;17.83;;
74510;SDS011;62991;50.040;18.400;2022-10-22T15:41:20;48.70;;;18.08;;
74510;SDS011;62991;50.040;18.400;2022-10-22T15:44:22;30.60;;;12.73;;
74510;SDS011;62991;50.040;18.400;2022-10-22T15:47:24;28.30;;;11.95;;
74510;SDS011;62991;50.040;18.400;2022-10-22T15:50:28;36.50;;;15.57;;
74510;SDS011;62991;50.040;18.400;2022-10-22T15:53:29;37.88;;;15.95;;
74510;SDS011;62991;50.040;18.400;2022-10-22T15:56:30;35.00;;;15.65;;
74510;SDS011;62991;50.040;18.400;2022-10-22T15:59:31;37.42;;;15.45;;
74510;SDS011;62991;50.040;18.400;2022-10-22T16:02:31;22.27;;;10.30;;
74510;SDS011;62991;50.040;18.400;2022-10-22T16:05:32;34.15;;;15.02;;
74510;SDS011;62991;50.040;18.400;2022-10-22T16:08:33;31.25;;;14.77;;
74510;SDS011;62991;50.040;18.400;2022-10-22T16:11:34;38.38;;;17.00;;
74510;SDS011;62991;50.040;18.400;2022-10-22T16:14:36;45.35;;;15.32;;
74510;SDS011;62991;50.040;18.400;2022-10-22T16:17:37;26.10;;;12.73;;
74510;SDS011;62991;50.040;18.400;2022-10-22T16:20:38;33.33;;;14.27;;
74510;SDS011;62991;50.040;18.400;2022-10-22T16:23:40;28.95;;;14.68;;
74510;SDS011;62991;50.040;18.400;2022-10-22T16:26:41;36.08;;;15.15;;
74510;SDS011;62991;50.040;18.400;2022-10-22T16:29:42;41.95;;;18.23;;
74510;SDS011;62991;50.040;18.400;2022-10-22T16:32:42;38.95;;;15.13;;
74510;SDS011;62991;50.040;18.400;2022-10-22T16:35:43;40.60;;;14.75;;
74510;SDS011;62991;50.040;18.400;2022-10-22T16:38:44;41.92;;;16.80;;
74510;SDS011;62991;50.040;18.400;2022-10-22T16:41:46;50.05;;;18.50;;
74510;SDS011;62991;50.040;18.400;2022-10-22T16:44:46;45.08;;;18.77;;
74510;SDS011;62991;50.040;18.400;2022-10-22T16:47:47;49.75;;;20.40;;
74510;SDS011;62991;50.040;18.400;2022-10-22T16:50:48;56.63;;;23.00;;
74510;SDS011;62991;50.040;18.400;2022-10-22T16:53:52;62.75;;;24.73;;
74510;SDS011;62991;50.040;18.400;2022-10-22T16:56:54;55.70;;;23.60;;
74510;SDS011;62991;50.040;18.400;2022-10-22T16:59:55;54.47;;;23.45;;
74510;SDS011;62991;50.040;18.400;2022-10-22T17:02:56;54.60;;;23.23;;
74510;SDS011;62991;50.040;18.400;2022-10-22T17:05:57;63.90;;;22.80;;
74510;SDS011;62991;50.040;18.400;2022-10-22T17:08:59;57.70;;;20.65;;
74510;SDS011;62991;50.040;18.400;2022-10-22T17:12:00;85.95;;;36.65;;
74510;SDS011;62991;50.040;18.400;2022-10-22T17:15:02;103.32;;;43.28;;
74510;SDS011;62991;50.040;18.400;2022-10-22T17:18:36;96.30;;;33.75;;
74510;SDS011;62991;50.040;18.400;2022-10-22T17:21:24;79.65;;;27.70;;
74510;SDS011;62991;50.040;18.400;2022-10-22T17:24:25;63.55;;;21.08;;
74510;SDS011;62991;50.040;18.400;2022-10-22T17:27:26;71.50;;;25.02;;
74510;SDS011;62991;50.040;18.400;2022-10-22T17:30:26;65.47;;;24.17;;
74510;SDS011;62991;50.040;18.400;2022-10-22T17:33:27;72.60;;;23.25;;
74510;SDS011;62991;50.040;18.400;2022-10-22T17:36:29;63.75;;;22.95;;
74510;SDS011;62991;50.040;18.400;2022-10-22T17:39:30;79.13;;;27.70;;
74510;SDS011;62991;50.040;18.400;2022-10-22T17:42:30;75.35;;;30.58;;
74510;SDS011;62991;50.040;18.400;2022-10-22T17:45:31;61.38;;;23.90;;
74510;SDS011;62991;50.040;18.400;2022-10-22T17:48:32;52.67;;;23.17;;
74510;SDS011;62991;50.040;18.400;2022-10-22T17:51:33;94.03;;;35.30;;
74510;SDS011;62991;50.040;18.400;2022-10-22T17:54:34;54.80;;;22.20;;
74510;SDS011;62991;50.040;18.400;2022-10-22T17:57:36;60.63;;;24.85;;
74510;SDS011;62991;50.040;18.400;2022-10-22T18:00:36;70.05;;;27.52;;
74510;SDS011;62991;50.040;18.400;2022-10-22T18:03:37;73.25;;;26.20;;
74510;SDS011;62991;50.040;18.400;2022-10-22T18:06:38;79.60;;;29.25;;
74510;SDS011;62991;50.040;18.400;2022-10-22T18:09:39;75.80;;;27.52;;
74510;SDS011;62991;50.040;18.400;2022-10-22T18:12:41;95.88;;;34.45;;
74510;SDS011;62991;50.040;18.400;2022-10-22T18:15:42;73.88;;;26.45;;
74510;SDS011;62991;50.040;18.400;2022-10-22T18:18:46;67.60;;;26.52;;
74510;SDS011;62991;50.040;18.400;2022-10-22T18:21:48;40.13;;;15.98;;
74510;SDS011;62991;50.040;18.400;2022-10-22T18:24:49;37.50;;;14.60;;
74510;SDS011;62991;50.040;18.400;2022-10-22T18:27:52;40.35;;;15.40;;
74510;SDS011;62991;50.040;18.400;2022-10-22T18:30:52;31.63;;;14.52;;
74510;SDS011;62991;50.040;18.400;2022-10-22T18:33:53;44.70;;;16.33;;
74510;SDS011;62991;50.040;18.400;2022-10-22T18:36:54;39.85;;;16.00;;
74510;SDS011;62991;50.040;18.400;2022-10-22T18:39:54;36.83;;;15.23;;
74510;SDS011;62991;50.040;18.400;2022-10-22T18:42:55;35.10;;;16.05;;
74510;SDS011;62991;50.040;18.400;2022-10-22T18:45:56;47.03;;;16.92;;
74510;SDS011;62991;50.040;18.400;2022-10-22T18:48:57;50.70;;;19.35;;
74510;SDS011;62991;50.040;18.400;2022-10-22T18:51:58;45.85;;;16.88;;
74510;SDS011;62991;50.040;18.400;2022-10-22T18:54:59;37.88;;;15.35;;
74510;SDS011;62991;50.040;18.400;2022-10-22T18:57:59;51.95;;;18.45;;
74510;SDS011;62991;50.040;18.400;2022-10-22T19:01:05;54.67;;;20.25;;
74510;SDS011;62991;50.040;18.400;2022-10-22T19:04:10;74.97;;;28.90;;
74510;SDS011;62991;50.040;18.400;2022-10-22T19:07:12;71.38;;;26.15;;
74510;SDS011;62991;50.040;18.400;2022-10-22T19:10:13;62.92;;;26.23;;
74510;SDS011;62991;50.040;18.400;2022-10-22T19:13:14;55.58;;;22.17;;